Aérodrome :
LOGIN :

S'inscrire | Disclaimer

   EN    FR    IT 

 










Légende :    VFR   VFR Marginal   IFR   IFR Intensif   IFR Très Intensif
Visi : 
Plafond : 
>= 8 km
>= 3000ft
5 à 8 km
1000 à 3000 ft
1500m à 5 km
500 à 1000 ft
800 à 1500m
200 à 500 ft
< 800m
< 200 ft
Symboles :   Orages  Brouillard  Fortes neiges  Fortes précipitations  Vent > 20 kt
SIGMETs :   Divers  Orages  Givrage  Turbulence  Onde Orograph.  Cendres Volcan.







- Altitude de l'aérodrome : 456 ft
- Code IATA : QPZ


LIMS - San Damiano Air Base Piacenza

DERNIER METAR :
  • 251655Z 13011KT CAVOK 25/18 Q1015

METARs EXPIRÉS :
  • 251555Z 12011KT CAVOK 25/17 Q1015
  • 251455Z 12012KT CAVOK 25/18 Q1015

Prévision TAF périmée.
Pas de NOTAMs connus pour ce terrain.
3 SIGMETs publiés pour la FIR Milano (LIMM) :
 
Annulation du SIGMET 12
LIMM SIGMET 14 VALID 251718/251740 LIIP
LIMM MILANO FIR CNL SIGMET 12 251540/251740=
Turbulence forte
LIMM SIGMET 13 VALID 251700/252100 LIIP
LIMM MILANO FIR SEV TURB FCST SE OF LINE N4607 E01345 - N4319 E01005 FL250/350 MOV ESE NC=
SIGMET 12  ANNULÉ :
Orages noyés dans la masse
LIMM SIGMET 12 VALID 251540/251740 LIIP
LIMM MILANO FIR EMBD TS OBS SE OF LINE N4340 E01117 - N4438 E01321 TOP ABV FL240 MOV SE NC=



MET'MAP, la Météo Aéronautique d'un coup d'oeil ! - Copyright ORBIFLY Décembre 2007 - Disclaimer

ORBIFLY MET'MAP TEAM :

Programmation & Développement : Alexandra Zaïnal
Conception & Développement : Baudouin d'Aumeries
Co-Programmation & Développement : Marc-Olivier Méhu
Soutien technique & logistique : Manuel Goepfert

Contact : metmap@orbifly.com




SOURCES & CREDITS :

   NOAA